Weather at Oslo Gardermoen Airport

Public forecast

Using degrees Celsius for public forecast. Weather courtesy of forecast.io.

Current aviation weather report (METAR) for Oslo Gardermoen Airport

Retrieved 2020/10/29 11:20 UTC (0 seconds ago):

ENGM 291120Z 20008KT 9999 FEW016 09/04 Q1001 NOSIG

Aviation forecast (TAF) for Oslo Gardermoen Airport

Retrieved 2020/10/29 06:58 UTC (4 hours ago):

TAF ENGM 290500Z 2906/3006 19005KT 9999 BKN008 BECMG 2909/2911 FEW008 BECMG 2923/3001 0500 FG VV002